Список аэропортов
Фактическая погода:

25 июня, 11:20
Температура: +31°C (+31.0*)
Ветер: сев.-восточный 7 м/с
Давление: *760 мм
неб. 600 м
Время (МСК)Темп. СВетерВлажностьДавлениеОблачностьОсадки
09:00+29СВ, 3 м/с45%1013 гПаясно
10:00+30СВ, 4 м/с39%1014 гПаясно
11:00+32СВ, 4 м/с37%1014 гПаясно
12:00+32СВ, 4 м/с35%1014 гПаясно
13:00+33СВ, 4 м/с33%1014 гПаясно
14:00+34СВ, 5 м/с32%1013 гПаясно
15:00+34СВ, 5 м/с30%1013 гПаясно
16:00+34СВ, 4 м/с30%1013 гПаясно
17:00+33В, 4 м/с31%1012 гПаясно
18:00+32В, 3 м/с34%1012 гПаясно
19:00+31СВ, 3 м/с38%1012 гПаясно
20:00+29СВ, 2 м/с45%1012 гПаясно
21:00+28С, 2 м/с51%1012 гПаясно
22:00+26С, 2 м/с56%1012 гПаясно
23:00+25С, 2 м/с59%1012 гПаясно
26 июня
00:00+25С, 2 м/с61%1012 гПаясно
01:00+24СЗ, 2 м/с63%1012 гПаясно
02:00+23СЗ, 2 м/с64%1012 гПаясно
03:00+23С, 2 м/с65%1012 гПаясно
04:00+22С, 2 м/с66%1011 гПаясно
05:00+22С, 2 м/с65%1011 гПаясно
06:00+22С, 2 м/с66%1011 гПаясно
07:00+22С, 2 м/с66%1011 гПаясно
08:00+25С, 2 м/с58%1011 гПаясно
09:00+28С, 4 м/с47%1012 гПаясно
10:00+30СВ, 3 м/с39%1012 гПаясно
11:00+31СВ, 3 м/с33%1012 гПаясно
12:00+32СВ, 4 м/с32%1012 гПаясно
13:00+32СВ, 5 м/с33%1012 гПаясно
14:00+33СВ, 5 м/с33%1011 гПаясно
15:00+32СВ, 5 м/с33%1011 гПаясно
16:00+32СВ, 5 м/с34%1011 гПаясно
17:00+31СВ, 4 м/с35%1011 гПаясно
18:00+31СВ, 3 м/с35%1011 гПаясно
19:00+30В, 2 м/с37%1010 гПаясно
20:00+28В, 1 м/с43%1011 гПаясно
21:00+27ЮВ, 1 м/с53%1011 гПаясно
22:00+25З, 1 м/с58%1011 гПаясно
23:00+24З, 1 м/с62%1011 гПаясно
27 июня
00:00+24З, 1 м/с66%1011 гПаясно
01:00+23З, 2 м/с67%1011 гПаясно
02:00+22З, 2 м/с66%1011 гПаясно
03:00+22З, 2 м/с64%1011 гПаясно
04:00+22З, 2 м/с62%1010 гПаясно
05:00+21З, 2 м/с66%1010 гПаясно
06:00+21СЗ, 2 м/с71%1010 гПаясно
07:00+21СЗ, 2 м/с71%1011 гПаясно
08:00+24С, 1 м/с64%1011 гПаясно
09:00+27СВ, 2 м/с52%1011 гПаясно